Time;durP1;ratioP1;P1;durP2;ratioP2;P2;SDS_P1;SDS_P2;PMS_P1;PMS_P2;Temp;Humidity;BMP_temperature;BMP_pressure;BME280_temperature;BME280_humidity;BME280_pressure;Samples;Min_cycle;Max_cycle;Signal;HPM_P1;HPM_P2
2022/03/12 00:00:30;;;;;;;9.23;6.72;;;6.80;59.00;;;;;;4896594;29;20028;-48
2022/03/12 00:02:57;;;;;;;13.60;7.55;;;6.80;59.00;;;;;;4896432;29;20031;-49
2022/03/12 00:05:23;;;;;;;10.27;7.25;;;6.80;59.00;;;;;;4896677;29;20059;-45
2022/03/12 00:07:51;;;;;;;13.50;7.13;;;6.70;59.00;;;;;;4896613;29;20032;-46
2022/03/12 00:10:19;;;;;;;12.13;7.32;;;6.70;59.10;;;;;;4896533;29;20051;-57
2022/03/12 12:29:34;;;;;;;10.85;8.23;;;13.00;58.90;;;;;;5397206;23;20510;-48
2022/03/12 12:32:03;;;;;;;17.05;9.02;;;13.20;58.90;;;;;;4934133;29;20122;-47
2022/03/12 12:34:29;;;;;;;15.18;9.70;;;13.20;58.60;;;;;;4932400;28;20490;-46
2022/03/12 12:37:02;;;;;;;13.73;8.32;;;13.30;58.70;;;;;;4932477;29;20038;-58
2022/03/12 12:39:29;;;;;;;11.15;8.40;;;13.30;58.80;;;;;;4914431;29;20082;-58
2022/03/12 12:41:58;;;;;;;11.23;8.07;;;13.30;59.80;;;;;;4945451;23;20060;-46
2022/03/12 12:44:39;;;;;;;12.90;8.15;;;13.30;59.80;;;;;;4934014;29;20099;-42
2022/03/12 12:47:07;;;;;;;11.82;8.27;;;13.50;59.80;;;;;;4932360;29;20016;-42
2022/03/12 12:49:35;;;;;;;12.77;8.07;;;13.60;59.10;;;;;;4933693;29;20102;-49
2022/03/12 12:52:02;;;;;;;14.50;8.50;;;13.50;59.00;;;;;;4922395;29;20024;-46
2022/03/12 12:55:01;;;;;;;14.15;8.90;;;13.60;59.70;;;;;;4913996;29;20495;-42
2022/03/12 12:57:48;;;;;;;12.45;8.65;;;13.60;59.60;;;;;;4914696;29;20116;-46
2022/03/12 13:00:20;;;;;;;11.60;9.50;;;13.70;60.00;;;;;;4914634;29;20028;-43
2022/03/12 13:02:46;;;;;;;11.48;8.40;;;13.60;60.30;;;;;;4914185;29;20514;-48
2022/03/12 13:05:12;;;;;;;15.48;8.63;;;13.70;60.70;;;;;;4914064;29;20043;-48
2022/03/12 13:07:59;;;;;;;12.13;8.85;;;13.60;60.70;;;;;;4914596;29;20038;-47
2022/03/12 13:10:26;;;;;;;14.43;8.77;;;13.60;61.90;;;;;;4914858;29;20028;-41
2022/03/12 13:13:06;;;;;;;17.25;10.38;;;13.60;61.90;;;;;;4914524;29;20075;-46
2022/03/12 13:15:37;;;;;;;13.95;9.18;;;13.60;61.80;;;;;;4913676;29;20399;-47
2022/03/12 13:18:27;;;;;;;13.57;9.25;;;13.50;62.30;;;;;;4913329;29;20024;-45
2022/03/12 13:20:53;;;;;;;10.98;8.25;;;13.50;62.30;;;;;;4914739;29;20028;-42
2022/03/12 13:23:25;;;;;;;14.52;9.07;;;13.40;63.00;;;;;;4914900;29;20032;-45
2022/03/12 13:25:57;;;;;;;37.75;26.48;;;13.30;63.20;;;;;;4916931;29;20444;-46
2022/03/12 13:28:41;;;;;;;28.73;19.05;;;13.30;63.30;;;;;;4918193;29;20117;-42
2022/03/12 13:31:30;;;;;;;14.02;10.65;;;13.30;63.70;;;;;;4917921;29;20100;-47
2022/03/12 13:34:02;;;;;;;10.55;8.63;;;13.30;63.50;;;;;;4918174;29;20024;-46
2022/03/12 13:36:33;;;;;;;11.55;8.50;;;13.40;63.40;;;;;;4917842;29;20490;-48
2022/03/12 13:38:59;;;;;;;12.90;9.30;;;13.40;63.80;;;;;;4917835;29;20060;-49
2022/03/12 13:41:25;;;;;;;11.77;8.95;;;13.40;63.30;;;;;;4917664;29;20051;-43
2022/03/12 13:43:53;;;;;;;45.47;11.13;;;13.50;63.30;;;;;;4917838;29;20032;-46
2022/03/12 13:46:23;;;;;;;11.38;8.38;;;13.60;64.30;;;;;;4917750;29;20043;-47
2022/03/12 13:49:09;;;;;;;15.13;9.05;;;13.60;63.70;;;;;;4917219;29;20447;-50
2022/03/12 13:51:39;;;;;;;12.55;9.18;;;13.60;63.60;;;;;;4917508;29;20025;-48
2022/03/12 13:54:07;;;;;;;16.95;9.73;;;13.60;63.70;;;;;;4917664;29;20030;-45
2022/03/12 13:56:33;;;;;;;13.48;8.75;;;13.70;64.20;;;;;;4917540;29;20020;-47
2022/03/12 13:59:03;;;;;;;14.80;9.82;;;13.90;64.40;;;;;;4917105;29;20375;-49
2022/03/12 14:01:34;;;;;;;13.80;8.82;;;13.90;65.00;;;;;;4917443;29;20028;-47
2022/03/12 14:04:01;;;;;;;17.33;9.25;;;14.10;65.30;;;;;;4917696;29;20440;-49
2022/03/12 14:06:28;;;;;;;10.82;8.70;;;14.20;64.60;;;;;;4917466;29;20387;-48
2022/03/12 14:08:56;;;;;;;12.05;9.15;;;14.20;64.30;;;;;;4917411;29;20476;-48
2022/03/12 14:11:39;;;;;;;19.02;9.50;;;14.10;64.60;;;;;;4916857;29;20084;-45
2022/03/12 14:14:11;;;;;;;13.05;9.35;;;14.00;64.00;;;;;;4917493;29;20056;-50
2022/03/12 14:16:39;;;;;;;10.98;8.38;;;14.00;64.90;;;;;;4917254;29;20079;-49
2022/03/12 14:19:07;;;;;;;13.05;8.75;;;14.00;64.80;;;;;;4916908;29;20032;-46
2022/03/12 14:21:43;;;;;;;13.93;9.23;;;14.00;64.50;;;;;;4917402;29;20024;-51
2022/03/12 14:24:16;;;;;;;14.82;8.93;;;14.00;65.60;;;;;;4916998;29;20024;-46
2022/03/12 14:26:52;;;;;;;11.95;9.15;;;14.10;65.10;;;;;;4917157;29;20028;-46
2022/03/12 14:29:20;;;;;;;33.97;20.85;;;14.10;65.50;;;;;;4916804;29;20080;-46
2022/03/12 14:31:46;;;;;;;16.48;9.75;;;14.00;66.40;;;;;;4916848;29;20505;-43
2022/03/12 14:34:13;;;;;;;14.63;8.25;;;14.20;67.00;;;;;;4917110;29;20032;-46
2022/03/12 14:36:42;;;;;;;9.70;7.82;;;14.30;67.10;;;;;;4916246;29;20031;-49
2022/03/12 14:39:12;;;;;;;12.70;8.40;;;14.20;66.80;;;;;;4916323;29;20021;-47
2022/03/12 14:41:37;;;;;;;13.80;9.05;;;14.00;66.80;;;;;;4916766;29;20032;-48
2022/03/12 14:44:11;;;;;;;13.60;9.60;;;14.20;67.10;;;;;;4915668;29;20403;-45
2022/03/12 14:46:45;;;;;;;11.27;9.02;;;14.00;66.70;;;;;;4916764;29;20055;-45
2022/03/12 14:49:35;;;;;;;12.18;8.95;;;13.90;66.70;;;;;;4915279;29;20506;-45
2022/03/12 14:52:19;;;;;;;12.00;9.27;;;13.90;66.70;;;;;;4916271;29;20032;-46
2022/03/12 14:54:48;;;;;;;11.65;8.82;;;13.80;66.70;;;;;;4915565;29;20048;-47
2022/03/12 14:57:18;;;;;;;10.38;8.40;;;13.80;66.70;;;;;;4916395;29;20027;-45
2022/03/12 14:59:45;;;;;;;9.38;7.88;;;13.80;67.00;;;;;;4917020;29;20032;-44
2022/03/12 15:02:21;;;;;;;11.40;8.52;;;13.80;66.90;;;;;;4916230;29;20040;-49
2022/03/12 15:04:50;;;;;;;12.63;8.80;;;13.80;66.80;;;;;;4916432;29;20035;-46
2022/03/12 15:07:27;;;;;;;11.73;8.60;;;13.80;67.00;;;;;;4916032;29;20035;-48
2022/03/12 15:10:03;;;;;;;16.02;9.52;;;13.80;67.00;;;;;;4916572;29;20583;-47
2022/03/12 15:12:40;;;;;;;11.57;8.82;;;13.80;68.00;;;;;;4915792;29;20043;-48
2022/03/12 15:15:16;;;;;;;14.02;9.18;;;13.70;68.10;;;;;;4916491;29;20028;-45
2022/03/12 15:17:42;;;;;;;10.05;8.35;;;13.80;67.70;;;;;;4915944;29;20510;-47
2022/03/12 15:20:26;;;;;;;14.13;9.20;;;13.90;67.50;;;;;;4916253;29;20028;-46
2022/03/12 15:23:05;;;;;;;14.30;10.02;;;13.90;67.20;;;;;;4916351;29;20031;-49
2022/03/12 15:25:35;;;;;;;11.93;8.93;;;13.80;66.70;;;;;;4916505;29;20024;-42
2022/03/12 15:28:11;;;;;;;11.18;9.13;;;13.80;66.80;;;;;;4915848;29;20032;-43
2022/03/12 15:30:38;;;;;;;12.65;8.02;;;13.70;66.80;;;;;;4916258;29;20448;-44
2022/03/12 15:33:04;;;;;;;12.10;9.65;;;13.70;66.70;;;;;;4915550;29;20514;-46
2022/03/12 15:35:44;;;;;;;12.02;8.52;;;13.70;66.70;;;;;;4921040;29;20035;-43
2022/03/12 15:38:11;;;;;;;11.50;8.88;;;13.70;66.70;;;;;;4918619;29;20046;-46
2022/03/12 15:40:38;;;;;;;15.93;8.23;;;13.60;66.80;;;;;;4917966;29;20388;-46
2022/03/12 15:43:05;;;;;;;9.63;8.43;;;13.70;66.80;;;;;;4917342;29;20085;-42
2022/03/12 15:45:31;;;;;;;11.77;9.05;;;13.70;66.40;;;;;;4918583;29;20032;-48
2022/03/12 15:47:56;;;;;;;12.75;8.40;;;13.70;66.00;;;;;;4917627;29;20032;-43
2022/03/12 15:50:23;;;;;;;41.15;25.13;;;13.90;65.20;;;;;;4917950;29;20031;-44
2022/03/12 15:52:50;;;;;;;87.97;56.05;;;13.90;65.00;;;;;;4919062;29;20056;-43
2022/03/12 15:55:19;;;;;;;15.38;10.80;;;13.90;65.20;;;;;;4919913;29;20079;-43
2022/03/12 15:57:45;;;;;;;14.75;9.27;;;13.80;65.20;;;;;;4919850;29;20024;-43
2022/03/12 16:00:15;;;;;;;11.65;9.45;;;13.80;65.10;;;;;;4917672;29;20432;-45
2022/03/12 16:02:41;;;;;;;14.02;8.55;;;13.70;65.20;;;;;;4917142;29;20025;-43
2022/03/12 16:05:08;;;;;;;14.02;8.75;;;13.70;65.00;;;;;;4917293;29;20111;-42
2022/03/12 16:07:38;;;;;;;13.45;8.52;;;13.80;65.10;;;;;;4916923;29;20055;-47
2022/03/12 16:10:08;;;;;;;13.93;9.80;;;13.80;64.80;;;;;;4917014;29;20028;-45
2022/03/12 16:12:34;;;;;;;11.07;8.48;;;13.80;65.00;;;;;;4917095;29;20552;-43
2022/03/12 16:15:00;;;;;;;15.10;9.68;;;13.70;64.90;;;;;;4917034;29;20061;-40
2022/03/12 16:17:26;;;;;;;16.00;9.18;;;13.70;65.20;;;;;;4917056;29;20020;-45
2022/03/12 16:19:53;;;;;;;10.93;8.93;;;13.60;65.50;;;;;;4917297;29;20031;-46
2022/03/12 16:22:19;;;;;;;10.82;7.75;;;13.60;65.70;;;;;;4917199;29;20403;-49
2022/03/12 16:24:45;;;;;;;15.27;9.50;;;13.50;66.10;;;;;;4917425;29;20024;-45
2022/03/12 16:27:11;;;;;;;10.32;8.40;;;13.50;66.30;;;;;;4917245;29;20025;-39
2022/03/12 16:29:37;;;;;;;15.65;9.82;;;13.50;65.70;;;;;;4916956;29;20051;-46
2022/03/12 16:32:05;;;;;;;17.60;8.95;;;13.50;65.40;;;;;;4915882;29;20070;-43
2022/03/12 16:34:30;;;;;;;11.30;9.02;;;13.50;65.50;;;;;;4916836;29;20020;-43
2022/03/12 16:36:56;;;;;;;23.92;9.82;;;13.40;65.20;;;;;;4916596;29;20031;-42
2022/03/12 16:39:21;;;;;;;11.95;9.00;;;13.30;65.50;;;;;;4916357;29;20024;-41
2022/03/12 16:41:47;;;;;;;19.45;9.90;;;13.30;65.30;;;;;;4916892;29;20068;-44
2022/03/12 16:44:16;;;;;;;16.50;10.05;;;13.40;65.30;;;;;;4917433;29;20032;-47
2022/03/12 16:46:41;;;;;;;14.93;10.43;;;13.30;65.30;;;;;;4917497;29;20218;-44
2022/03/12 16:49:14;;;;;;;12.95;9.57;;;13.30;65.40;;;;;;4916944;29;20051;-40
2022/03/12 16:51:41;;;;;;;16.55;9.73;;;13.20;65.50;;;;;;4916622;29;20025;-49
2022/03/12 16:54:07;;;;;;;15.63;8.77;;;13.10;65.60;;;;;;4917029;29;20116;-44
2022/03/12 16:56:32;;;;;;;16.73;11.15;;;13.10;65.90;;;;;;4916796;29;20534;-44
2022/03/12 16:58:58;;;;;;;17.83;10.38;;;13.00;66.00;;;;;;4915267;29;20043;-47
2022/03/12 17:01:23;;;;;;;19.75;9.65;;;13.10;66.10;;;;;;4920219;29;20036;-45
2022/03/12 17:03:49;;;;;;;16.92;9.70;;;13.00;66.30;;;;;;4920932;29;20391;-45
2022/03/12 17:06:14;;;;;;;17.48;8.65;;;13.00;66.50;;;;;;4920917;29;20051;-48
2022/03/12 17:08:40;;;;;;;11.05;8.80;;;12.90;66.80;;;;;;4921193;29;20100;-44
2022/03/12 17:11:07;;;;;;;14.05;8.85;;;12.80;67.00;;;;;;4921168;29;20131;-42
2022/03/12 17:13:36;;;;;;;15.63;8.55;;;12.60;67.20;;;;;;4921343;29;20042;-51
2022/03/12 17:16:04;;;;;;;14.07;8.45;;;12.60;67.60;;;;;;4920909;29;20027;-45
2022/03/12 17:18:29;;;;;;;11.02;7.93;;;12.50;67.70;;;;;;4919649;29;20024;-49
2022/03/12 17:20:58;;;;;;;10.70;8.98;;;12.40;67.90;;;;;;4920316;29;20044;-47
2022/03/12 17:23:28;;;;;;;46.92;31.30;;;12.40;68.30;;;;;;4920547;29;20039;-39
2022/03/12 17:25:57;;;;;;;71.55;43.65;;;12.30;68.40;;;;;;4920925;29;20025;-43
2022/03/12 17:28:26;;;;;;;95.93;57.58;;;12.20;68.80;;;;;;4920743;29;20043;-45
2022/03/12 17:30:53;;;;;;;23.48;11.40;;;12.10;68.90;;;;;;4921166;29;20083;-50
2022/03/12 17:33:19;;;;;;;13.63;9.05;;;12.20;68.70;;;;;;4921529;29;20444;-40
2022/03/12 17:35:46;;;;;;;9.63;7.78;;;12.10;68.70;;;;;;4921467;29;20020;-44
2022/03/12 17:38:11;;;;;;;15.73;8.52;;;12.10;68.50;;;;;;4922639;29;20024;-44
2022/03/12 17:40:39;;;;;;;14.35;8.57;;;12.10;68.60;;;;;;4922883;29;20031;-43
2022/03/12 17:43:06;;;;;;;12.13;8.15;;;11.90;68.50;;;;;;4920875;29;20108;-47
2022/03/12 17:45:33;;;;;;;11.00;8.15;;;11.90;68.30;;;;;;4923084;29;20036;-42
2022/03/12 17:47:59;;;;;;;14.63;8.85;;;11.80;68.20;;;;;;4920758;29;20511;-45
2022/03/12 17:50:27;;;;;;;13.68;7.80;;;11.80;68.40;;;;;;4922493;29;20566;-45
2022/03/12 17:52:53;;;;;;;10.55;8.40;;;11.80;68.40;;;;;;4920499;29;20043;-44
2022/03/12 17:55:19;;;;;;;12.80;8.35;;;11.70;68.20;;;;;;4923246;29;20032;-48
2022/03/12 17:57:47;;;;;;;10.98;8.68;;;11.60;68.60;;;;;;4920900;29;20028;-47
2022/03/12 18:00:20;;;;;;;13.77;9.18;;;11.50;68.70;;;;;;4918687;29;20027;-44
2022/03/12 18:02:49;;;;;;;12.38;8.13;;;11.40;68.70;;;;;;4917668;29;20028;-40
2022/03/12 18:05:18;;;;;;;11.20;8.30;;;11.40;68.80;;;;;;4917719;29;20111;-47
2022/03/12 18:07:46;;;;;;;18.35;8.82;;;11.30;68.70;;;;;;4917279;29;20031;-41
2022/03/12 18:10:15;;;;;;;14.38;8.75;;;11.30;68.60;;;;;;4917965;29;20024;-45
2022/03/12 18:12:41;;;;;;;15.93;9.13;;;11.30;68.60;;;;;;4916436;29;20028;-45
2022/03/12 18:15:11;;;;;;;16.85;10.00;;;11.20;69.20;;;;;;4917479;29;20016;-43
2022/03/12 18:17:38;;;;;;;12.88;8.63;;;11.20;68.60;;;;;;4916547;29;20039;-42
2022/03/12 18:20:08;;;;;;;13.30;9.10;;;11.10;68.30;;;;;;4917413;29;20491;-44
2022/03/12 18:22:37;;;;;;;15.48;9.40;;;11.20;68.20;;;;;;4917733;29;20107;-46
2022/03/12 18:25:05;;;;;;;15.43;9.82;;;11.20;68.00;;;;;;4917671;29;20407;-40
2022/03/12 18:27:32;;;;;;;14.77;9.10;;;11.20;68.00;;;;;;4916860;29;20098;-45
2022/03/12 18:29:57;;;;;;;14.50;9.43;;;11.10;67.90;;;;;;4917361;29;20547;-46
2022/03/12 18:32:23;;;;;;;15.25;9.57;;;11.10;67.80;;;;;;4916730;29;20032;-48
2022/03/12 18:34:50;;;;;;;14.55;9.57;;;11.10;67.40;;;;;;4917098;29;20044;-43
2022/03/12 18:37:17;;;;;;;17.27;9.05;;;11.10;67.30;;;;;;4916748;29;20448;-47
2022/03/12 18:39:48;;;;;;;17.90;10.05;;;11.00;66.80;;;;;;4916781;29;20028;-46
2022/03/12 18:42:16;;;;;;;15.38;10.20;;;10.90;67.00;;;;;;4916625;29;20040;-43
2022/03/12 18:44:44;;;;;;;15.15;10.13;;;10.90;66.30;;;;;;4916811;29;20035;-41
2022/03/12 18:47:15;;;;;;;15.07;10.13;;;10.80;66.70;;;;;;4916647;29;20028;-42
2022/03/12 18:49:43;;;;;;;16.13;9.68;;;10.80;66.70;;;;;;4916811;29;20517;-45
2022/03/12 18:52:10;;;;;;;15.35;8.70;;;10.70;66.90;;;;;;4916513;29;20032;-39
2022/03/12 18:54:36;;;;;;;19.35;10.38;;;10.70;67.50;;;;;;4916458;29;20056;-49
2022/03/12 18:57:03;;;;;;;15.40;9.10;;;10.60;67.70;;;;;;4916564;29;20076;-45
2022/03/12 18:59:29;;;;;;;19.60;10.30;;;10.50;67.80;;;;;;4916057;29;20024;-46
2022/03/12 19:01:54;;;;;;;16.48;9.73;;;10.50;67.50;;;;;;4916194;29;20038;-45
2022/03/12 19:04:22;;;;;;;17.77;9.75;;;10.40;67.40;;;;;;4915944;29;20126;-39
2022/03/12 19:06:48;;;;;;;18.88;9.50;;;10.40;67.70;;;;;;4914872;29;20028;-45
2022/03/12 19:09:13;;;;;;;22.52;11.45;;;10.30;67.60;;;;;;4915866;29;20114;-43
2022/03/12 19:11:42;;;;;;;49.33;28.52;;;10.30;67.20;;;;;;4915970;29;20040;-50
2022/03/12 19:14:09;;;;;;;16.15;10.52;;;10.30;67.40;;;;;;4916370;29;20403;-47
2022/03/12 19:16:35;;;;;;;22.17;10.00;;;10.20;67.20;;;;;;4916151;29;20091;-46
2022/03/12 19:19:04;;;;;;;15.57;9.48;;;10.20;67.10;;;;;;4915694;29;20479;-46
2022/03/12 19:21:30;;;;;;;13.18;9.48;;;10.10;66.40;;;;;;4915054;29;20496;-46
2022/03/12 19:23:56;;;;;;;14.82;9.57;;;10.10;66.70;;;;;;4916323;29;20028;-47
2022/03/12 19:26:21;;;;;;;17.55;9.27;;;10.10;66.40;;;;;;4916300;29;20035;-49
2022/03/12 19:28:47;;;;;;;20.35;9.85;;;10.00;66.10;;;;;;4916103;29;20028;-43
2022/03/12 19:31:19;;;;;;;15.07;9.20;;;10.00;66.10;;;;;;4914428;29;20040;-40
2022/03/12 19:33:47;;;;;;;13.55;9.80;;;9.90;65.90;;;;;;4916354;29;20035;-48
2022/03/12 19:36:13;;;;;;;16.17;9.50;;;9.90;66.00;;;;;;4916304;29;20055;-47
2022/03/12 19:38:39;;;;;;;18.00;9.88;;;9.90;65.90;;;;;;4915770;29;20024;-48
2022/03/12 19:41:05;;;;;;;14.18;9.40;;;9.80;65.80;;;;;;4915323;29;20511;-49
2022/03/12 19:43:31;;;;;;;21.88;9.55;;;9.80;65.70;;;;;;4915958;29;20055;-44
2022/03/12 19:45:59;;;;;;;16.67;9.52;;;9.70;65.80;;;;;;4915734;29;20502;-44
2022/03/12 19:48:24;;;;;;;15.48;9.55;;;9.60;65.50;;;;;;4916009;29;20274;-45
2022/03/12 19:50:52;;;;;;;16.30;9.45;;;9.60;65.50;;;;;;4915827;29;20064;-43
2022/03/12 19:53:18;;;;;;;13.65;9.00;;;9.60;65.40;;;;;;4915671;29;20111;-46
2022/03/12 19:55:44;;;;;;;19.10;10.52;;;9.50;65.50;;;;;;4915609;29;20394;-44
2022/03/12 19:58:09;;;;;;;15.43;10.65;;;9.40;65.90;;;;;;4915186;29;20020;-44
2022/03/12 20:00:35;;;;;;;16.60;10.35;;;9.40;66.10;;;;;;4915822;29;20040;-43
2022/03/12 20:03:03;;;;;;;13.20;10.50;;;9.30;65.70;;;;;;4915675;29;20123;-44
2022/03/12 20:05:29;;;;;;;18.80;10.55;;;9.30;65.70;;;;;;4914104;29;20332;-44
2022/03/12 20:07:55;;;;;;;16.17;9.75;;;9.20;65.80;;;;;;4915290;29;20539;-47
2022/03/12 20:10:21;;;;;;;19.98;10.30;;;9.20;65.80;;;;;;4915634;29;20028;-47
2022/03/12 20:12:47;;;;;;;13.80;9.70;;;9.10;65.80;;;;;;4915444;29;20032;-44
2022/03/12 20:15:18;;;;;;;16.30;9.45;;;9.10;65.40;;;;;;4915683;29;20451;-48
2022/03/12 20:17:44;;;;;;;15.63;9.48;;;9.10;65.20;;;;;;4915346;29;20439;-45
2022/03/12 20:20:11;;;;;;;16.88;10.43;;;9.10;65.00;;;;;;4914076;29;20024;-45
2022/03/12 20:22:38;;;;;;;16.02;9.23;;;9.00;64.90;;;;;;4915473;29;20079;-44
2022/03/12 20:25:05;;;;;;;14.10;8.85;;;9.00;64.50;;;;;;4915900;29;20024;-45
2022/03/12 20:27:31;;;;;;;17.40;10.95;;;9.00;64.30;;;;;;4915382;29;20117;-46
2022/03/12 20:29:57;;;;;;;18.67;9.70;;;9.00;64.00;;;;;;4916248;29;20059;-44
2022/03/12 20:32:23;;;;;;;12.15;8.82;;;9.00;63.80;;;;;;4915183;29;20480;-47
2022/03/12 20:34:49;;;;;;;25.05;9.20;;;9.00;63.70;;;;;;4916722;29;20034;-49
2022/03/12 20:37:16;;;;;;;19.77;9.73;;;8.90;63.40;;;;;;4917820;29;20024;-44
2022/03/12 20:39:44;;;;;;;20.58;9.75;;;8.90;63.30;;;;;;4918887;29;20024;-46
2022/03/12 20:42:11;;;;;;;24.10;13.68;;;8.90;63.20;;;;;;4919365;29;20043;-45
2022/03/12 20:44:37;;;;;;;16.55;11.43;;;8.90;63.30;;;;;;4919340;29;20403;-45
2022/03/12 20:47:04;;;;;;;19.48;13.13;;;8.80;63.30;;;;;;4918157;29;20039;-46
2022/03/12 20:49:30;;;;;;;16.58;10.20;;;8.90;63.10;;;;;;4918966;29;20047;-46
2022/03/12 20:51:55;;;;;;;15.73;9.70;;;8.90;62.80;;;;;;4919115;29;20699;-47
2022/03/12 20:54:21;;;;;;;11.55;8.95;;;8.80;62.70;;;;;;4919336;29;20075;-40
2022/03/12 20:56:47;;;;;;;13.30;8.75;;;8.80;62.60;;;;;;4918872;29;20031;-43
2022/03/12 20:59:13;;;;;;;14.27;9.05;;;8.80;62.50;;;;;;4918517;29;20028;-49
2022/03/12 21:01:39;;;;;;;14.40;9.43;;;8.70;62.60;;;;;;4918661;29;20024;-49
2022/03/12 21:04:05;;;;;;;18.77;8.95;;;8.70;62.10;;;;;;4918590;29;20047;-46
2022/03/12 21:06:30;;;;;;;10.93;8.30;;;8.70;61.60;;;;;;4918513;29;20035;-44
2022/03/12 21:08:56;;;;;;;14.82;9.00;;;8.70;61.60;;;;;;4918484;29;20228;-43
2022/03/12 21:11:22;;;;;;;14.27;9.45;;;8.80;61.10;;;;;;4918609;29;20032;-45
2022/03/12 21:13:48;;;;;;;12.75;9.15;;;8.70;60.50;;;;;;4918633;29;20415;-42
2022/03/12 21:16:17;;;;;;;13.50;8.75;;;8.80;60.30;;;;;;4918232;29;20075;-43
2022/03/12 21:18:42;;;;;;;13.15;9.40;;;8.90;60.00;;;;;;4918121;29;20024;-44
2022/03/12 21:21:08;;;;;;;13.65;8.90;;;8.90;59.70;;;;;;4918320;29;20031;-42
2022/03/12 21:23:36;;;;;;;17.85;9.48;;;9.00;60.00;;;;;;4918221;29;20059;-48
2022/03/12 21:26:03;;;;;;;15.38;9.50;;;9.00;60.00;;;;;;4918639;29;20460;-48
2022/03/12 21:28:30;;;;;;;14.93;10.15;;;9.00;60.40;;;;;;4917966;29;20051;-46
2022/03/12 21:30:55;;;;;;;22.58;11.13;;;8.90;60.10;;;;;;4917975;29;20653;-44
2022/03/12 21:33:21;;;;;;;15.85;10.07;;;8.90;60.30;;;;;;4918589;29;20032;-38
2022/03/12 21:35:47;;;;;;;17.67;9.95;;;8.80;60.30;;;;;;4918685;29;20033;-43
2022/03/12 21:38:14;;;;;;;16.70;10.65;;;8.70;60.70;;;;;;4917553;29;20123;-44
2022/03/12 21:40:39;;;;;;;15.50;10.45;;;8.70;60.30;;;;;;4917613;29;20024;-44
2022/03/12 21:43:09;;;;;;;18.75;10.77;;;8.60;60.90;;;;;;4918095;29;20120;-44
2022/03/12 21:45:35;;;;;;;13.93;9.63;;;8.50;60.90;;;;;;4917290;29;20500;-43
2022/03/12 21:48:03;;;;;;;13.43;9.70;;;8.50;61.30;;;;;;4917066;29;20406;-46
2022/03/12 21:50:33;;;;;;;14.30;10.05;;;8.50;61.50;;;;;;4917922;29;20039;-43
2022/03/12 21:52:59;;;;;;;14.80;11.15;;;8.40;61.70;;;;;;4917700;29;20451;-43
2022/03/12 21:55:26;;;;;;;17.15;11.10;;;8.20;62.20;;;;;;4917960;29;20059;-45
2022/03/12 21:57:55;;;;;;;14.95;10.05;;;8.10;62.60;;;;;;4917810;29;20028;-43
2022/03/12 22:00:30;;;;;;;17.73;10.15;;;8.00;63.00;;;;;;4917375;29;20036;-43
2022/03/12 22:02:56;;;;;;;14.45;10.15;;;8.00;63.10;;;;;;4917856;29;20100;-45
2022/03/12 22:05:25;;;;;;;19.40;10.00;;;7.90;63.20;;;;;;4917868;29;20182;-44
2022/03/12 22:07:53;;;;;;;14.30;10.23;;;7.80;63.20;;;;;;4917406;29;20487;-46
2022/03/12 22:10:20;;;;;;;17.23;10.35;;;7.70;63.30;;;;;;4917393;29;20099;-43
2022/03/12 22:12:47;;;;;;;18.73;10.50;;;7.60;63.30;;;;;;4917121;29;20555;-43
2022/03/12 22:15:13;;;;;;;15.73;10.25;;;7.70;63.30;;;;;;4917435;29;20036;-45
2022/03/12 22:17:40;;;;;;;12.73;8.93;;;7.70;63.00;;;;;;4917254;29;20546;-46
2022/03/12 22:20:06;;;;;;;11.27;8.90;;;7.60;63.10;;;;;;4917629;29;20511;-46
2022/03/12 22:22:32;;;;;;;14.73;8.75;;;7.50;63.50;;;;;;4917404;29;20111;-43
2022/03/12 22:24:59;;;;;;;18.35;10.70;;;7.50;63.40;;;;;;4917300;29;20399;-44
2022/03/12 22:27:25;;;;;;;13.80;9.43;;;7.40;63.90;;;;;;4916745;29;20028;-46
2022/03/12 22:29:51;;;;;;;15.43;9.45;;;7.40;63.50;;;;;;4917760;29;20107;-49
2022/03/12 22:32:16;;;;;;;13.82;10.02;;;7.40;63.30;;;;;;4917272;29;20028;-43
2022/03/12 22:34:42;;;;;;;15.73;8.93;;;7.30;63.30;;;;;;4917211;29;20056;-43
2022/03/12 22:37:09;;;;;;;14.55;9.20;;;7.30;63.20;;;;;;4916995;29;20063;-46
2022/03/12 22:39:36;;;;;;;17.20;9.63;;;7.30;63.00;;;;;;4914795;29;20335;-42
2022/03/12 22:42:04;;;;;;;11.90;8.48;;;7.30;62.90;;;;;;4916758;29;20039;-46
2022/03/12 22:44:30;;;;;;;14.27;9.35;;;7.30;62.80;;;;;;4916759;29;20056;-42
2022/03/12 22:46:58;;;;;;;12.63;8.40;;;7.30;62.70;;;;;;4916621;29;20025;-45
2022/03/12 22:49:24;;;;;;;14.90;8.80;;;7.30;62.70;;;;;;4916736;29;20032;-47
2022/03/12 22:51:52;;;;;;;15.40;9.43;;;7.30;62.40;;;;;;4916724;29;20137;-44
2022/03/12 22:54:17;;;;;;;15.82;9.55;;;7.20;62.50;;;;;;4917362;29;20492;-43
2022/03/12 22:56:43;;;;;;;13.80;9.32;;;7.20;62.60;;;;;;4916938;29;20055;-45
2022/03/12 22:59:09;;;;;;;19.08;10.52;;;7.20;62.50;;;;;;4916189;29;20028;-44
2022/03/12 23:01:50;;;;;;;11.30;9.30;;;7.20;62.30;;;;;;4915932;29;20028;-49
2022/03/12 23:09:48;;;;;;;22.15;14.02;;;7.20;62.20;;;;;;4916946;29;20031;-45
2022/03/12 23:12:16;;;;;;;22.50;13.98;;;7.10;62.10;;;;;;4916812;29;20032;-39
2022/03/12 23:14:51;;;;;;;23.55;12.70;;;7.10;62.10;;;;;;4916236;29;20026;-46
2022/03/12 23:17:25;;;;;;;14.43;10.45;;;7.10;62.20;;;;;;4916159;29;20052;-47
2022/03/12 23:19:58;;;;;;;16.15;10.73;;;7.00;62.20;;;;;;4916592;29;20039;-46
2022/03/12 23:22:23;;;;;;;19.30;17.17;;;6.90;62.30;;;;;;4916249;29;20028;-48
2022/03/12 23:24:56;;;;;;;18.55;13.82;;;6.90;62.60;;;;;;4916358;29;20087;-45
2022/03/12 23:27:25;;;;;;;22.38;13.77;;;6.90;62.50;;;;;;4915447;29;20484;-47
2022/03/12 23:29:51;;;;;;;21.23;12.90;;;6.90;62.50;;;;;;4916204;29;20035;-44
2022/03/12 23:32:16;;;;;;;16.95;11.40;;;6.80;62.40;;;;;;4916026;29;20038;-42
2022/03/12 23:34:42;;;;;;;26.63;13.15;;;6.80;62.50;;;;;;4916404;29;20539;-44
2022/03/12 23:37:09;;;;;;;20.13;12.88;;;6.80;62.50;;;;;;4915842;29;20035;-42
2022/03/12 23:39:35;;;;;;;16.70;11.27;;;6.80;62.70;;;;;;4915389;29;20047;-50
2022/03/12 23:42:01;;;;;;;16.90;10.38;;;6.70;62.80;;;;;;4915504;29;20075;-46
2022/03/12 23:44:28;;;;;;;26.85;16.95;;;6.60;62.90;;;;;;4916001;29;20028;-46
2022/03/12 23:46:56;;;;;;;44.53;27.55;;;6.60;62.90;;;;;;4915753;29;20107;-45
2022/03/12 23:49:24;;;;;;;19.63;13.63;;;6.60;62.90;;;;;;4915409;29;20074;-40
2022/03/12 23:52:40;;;;;;;17.10;11.68;;;6.60;62.80;;;;;;4915163;29;20032;-45
2022/03/12 23:55:10;;;;;;;20.23;10.35;;;6.60;62.50;;;;;;4904143;29;20032;-44
2022/03/12 23:57:39;;;;;;;14.68;11.02;;;6.60;62.60;;;;;;4915344;29;20042;-41
